Time;durP1;ratioP1;P1;durP2;ratioP2;P2;SDS_P1;SDS_P2;PMS_P1;PMS_P2;Temp;Humidity;BMP_temperature;BMP_pressure;BME280_temperature;BME280_humidity;BME280_pressure;Samples;Min_cycle;Max_cycle;Signal;HPM_P1;HPM_P2
2021/11/25 00:01:21;;;;;;;58.70;34.10;;;;;;;2.47;64.31;99315.41;212677;1325;139625;-59
2021/11/25 00:06:25;;;;;;;63.30;33.60;;;;;;;2.41;64.41;99301.02;212052;1322;139224;-60
2021/11/25 00:11:28;;;;;;;61.30;32.60;;;;;;;2.40;64.37;99287.03;212728;1321;139971;-59
2021/11/25 00:16:32;;;;;;;62.90;32.80;;;;;;;2.46;64.60;99280.77;212278;1328;140497;-60
2021/11/25 00:21:35;;;;;;;58.90;34.00;;;;;;;2.52;64.76;99274.47;212672;1325;139618;-60
2021/11/25 00:26:38;;;;;;;53.60;31.80;;;;;;;2.49;64.42;99276.29;211847;1331;139392;-59
2021/11/25 00:31:41;;;;;;;61.40;33.50;;;;;;;2.45;64.44;99277.44;212375;1328;139013;-60
2021/11/25 00:36:44;;;;;;;59.10;33.20;;;;;;;2.41;64.49;99275.45;212451;1324;139630;-60
2021/11/25 00:41:48;;;;;;;66.10;34.70;;;;;;;2.33;64.52;99263.73;211893;1333;139484;-60
2021/11/25 00:46:52;;;;;;;60.40;33.20;;;;;;;2.27;64.44;99261.79;211913;1328;138915;-61
2021/11/25 00:51:56;;;;;;;65.10;33.90;;;;;;;2.21;64.76;99255.63;212127;1325;139045;-60
2021/11/25 00:57:01;;;;;;;70.50;34.70;;;;;;;2.16;64.70;99249.12;212600;1323;138852;-62
2021/11/25 01:02:04;;;;;;;63.20;33.80;;;;;;;2.10;64.73;99242.05;212030;1327;139235;-60
2021/11/25 01:07:07;;;;;;;57.20;33.20;;;;;;;2.08;64.94;99234.77;212592;1323;140224;-62
2021/11/25 01:12:11;;;;;;;64.20;33.50;;;;;;;2.06;64.94;99226.95;212664;1326;139298;-63
2021/11/25 01:17:15;;;;;;;80.20;43.50;;;;;;;2.04;64.96;99227.55;212900;1321;139559;-62
2021/11/25 01:22:18;;;;;;;87.80;46.30;;;;;;;2.04;65.04;99221.04;212669;1323;141330;-59
2021/11/25 01:27:22;;;;;;;96.40;50.10;;;;;;;2.12;65.14;99210.89;212544;1325;139697;-62
2021/11/25 01:32:25;;;;;;;93.80;50.80;;;;;;;2.20;65.28;99199.30;212302;1329;138850;-61
2021/11/25 01:37:28;;;;;;;98.50;52.70;;;;;;;2.26;65.36;99191.80;212202;1326;139068;-61
2021/11/25 01:42:31;;;;;;;105.30;54.10;;;;;;;2.27;65.26;99182.30;212318;1329;139047;-59
2021/11/25 01:47:35;;;;;;;101.20;52.90;;;;;;;2.26;65.04;99172.38;212405;1329;139602;-59
2021/11/25 01:52:39;;;;;;;93.50;48.20;;;;;;;2.23;65.19;99174.38;211798;1329;139202;-57
2021/11/25 01:57:42;;;;;;;98.90;52.50;;;;;;;2.19;65.17;99167.33;212022;1331;139911;-60
2021/11/25 02:02:45;;;;;;;96.20;51.40;;;;;;;2.17;65.26;99163.33;212126;1331;139642;-64
2021/11/25 02:07:49;;;;;;;81.80;45.70;;;;;;;2.14;65.07;99155.55;212699;1322;139354;-59
2021/11/25 02:12:52;;;;;;;82.30;45.10;;;;;;;2.09;65.12;99148.83;212697;1325;139160;-65
2021/11/25 02:17:55;;;;;;;92.10;49.30;;;;;;;2.05;65.25;99135.81;212050;1326;139364;-60
2021/11/25 02:23:00;;;;;;;84.60;46.90;;;;;;;2.08;65.48;99135.73;212013;1325;140859;-66
2021/11/25 02:28:07;;;;;;;94.10;50.30;;;;;;;2.10;65.41;99121.14;212844;1326;139215;-60
2021/11/25 02:33:13;;;;;;;106.00;52.90;;;;;;;2.12;65.24;99113.55;212384;1325;139517;-61
2021/11/25 02:38:17;;;;;;;104.90;55.90;;;;;;;2.19;65.44;99111.99;212365;1326;139817;-57
2021/11/25 02:43:26;;;;;;;108.10;57.60;;;;;;;2.23;65.35;99106.27;212315;1323;141504;-57
2021/11/25 02:48:36;;;;;;;104.00;56.50;;;;;;;2.25;65.26;99096.60;213277;1325;139428;-58
2021/11/25 02:53:40;;;;;;;93.30;52.10;;;;;;;2.26;65.22;99090.26;212157;1325;139506;-59
2021/11/25 02:58:45;;;;;;;87.40;47.30;;;;;;;2.23;65.14;99078.80;211872;1325;139145;-59
2021/11/25 03:03:48;;;;;;;84.80;46.10;;;;;;;2.17;64.93;99074.43;211973;1329;141448;-61
2021/11/25 03:08:53;;;;;;;76.00;42.90;;;;;;;2.11;65.08;99064.61;212658;1328;138827;-60
2021/11/25 03:14:00;;;;;;;75.10;42.80;;;;;;;2.08;65.06;99057.52;212025;1324;255853;-59
2021/11/25 03:19:03;;;;;;;68.20;39.60;;;;;;;2.03;65.18;99053.80;212398;1326;139497;-57
2021/11/25 03:24:06;;;;;;;71.90;40.00;;;;;;;1.96;65.03;99039.84;212330;1323;139414;-59
2021/11/25 03:29:11;;;;;;;68.00;39.30;;;;;;;1.89;65.14;99027.59;212587;1328;139549;-60
2021/11/25 03:34:16;;;;;;;65.60;38.20;;;;;;;1.83;65.15;99025.65;212297;1328;140326;-60
2021/11/25 03:39:19;;;;;;;75.20;39.40;;;;;;;1.77;65.23;99025.12;212279;1329;139305;-60
2021/11/25 03:44:22;;;;;;;80.50;42.40;;;;;;;1.71;65.32;99019.15;212406;1325;139963;-60
2021/11/25 03:49:25;;;;;;;72.50;39.80;;;;;;;1.73;65.40;99011.95;212461;1328;141348;-59
2021/11/25 03:54:28;;;;;;;71.00;38.80;;;;;;;1.80;65.61;99007.90;212471;1327;139637;-60
2021/11/25 03:59:33;;;;;;;70.20;38.20;;;;;;;1.86;65.41;99001.44;212070;1325;139614;-62
2021/11/25 04:04:36;;;;;;;64.30;35.30;;;;;;;1.86;65.47;98994.95;212705;1324;140010;-60
2021/11/25 04:09:40;;;;;;;66.10;35.00;;;;;;;1.85;65.40;98989.75;212405;1322;139270;-59
2021/11/25 04:14:43;;;;;;;64.70;35.70;;;;;;;1.84;65.49;98983.46;212787;1328;139084;-59
2021/11/25 04:19:46;;;;;;;66.70;36.30;;;;;;;1.81;65.27;98973.59;212363;1323;139209;-60
2021/11/25 04:24:53;;;;;;;62.80;35.50;;;;;;;1.76;65.44;98961.16;213086;1322;139562;-62
2021/11/25 04:30:50;;;;;;;64.20;34.20;;;;;;;1.72;65.35;98954.77;212699;1322;138914;-58
2021/11/25 04:35:33;;;;;;;65.30;34.90;;;;;;;1.70;65.44;98945.05;211857;1329;140747;-62
2021/11/25 04:40:42;;;;;;;60.20;34.80;;;;;;;1.66;65.41;98929.23;212302;1328;139228;-58
2021/11/25 04:45:47;;;;;;;216.40;124.60;;;;;;;1.68;65.86;98921.65;212317;1328;139286;-61
2021/11/25 04:50:52;;;;;;;61.10;34.70;;;;;;;1.80;66.11;98915.88;211758;1332;139327;-59
2021/11/25 04:55:55;;;;;;;60.30;33.80;;;;;;;1.84;65.56;98908.10;211802;1331;140899;-60
2021/11/25 05:00:59;;;;;;;59.40;34.10;;;;;;;1.83;65.32;98895.34;212284;1328;140463;-59
2021/11/25 05:06:03;;;;;;;65.10;35.00;;;;;;;1.80;65.27;98887.91;212238;1328;140100;-59
2021/11/25 05:11:06;;;;;;;55.90;34.00;;;;;;;1.75;65.23;98888.23;212302;1329;140020;-58
2021/11/25 05:16:09;;;;;;;200.10;123.00;;;;;;;1.70;65.27;98878.58;211772;1332;140600;-59
2021/11/25 05:21:13;;;;;;;63.50;35.10;;;;;;;1.82;65.83;98864.61;212402;1329;140568;-60
2021/11/25 05:26:17;;;;;;;58.40;33.40;;;;;;;1.79;65.27;98861.37;212250;1323;139622;-64
2021/11/25 05:31:20;;;;;;;54.00;32.00;;;;;;;1.68;65.09;98864.32;212130;1329;139145;-59
2021/11/25 05:36:24;;;;;;;53.30;30.00;;;;;;;1.57;65.07;98866.02;212006;1331;139870;-61
2021/11/25 05:41:27;;;;;;;55.10;31.30;;;;;;;1.49;65.17;98861.35;212541;1323;141172;-61
2021/11/25 05:46:30;;;;;;;54.00;30.70;;;;;;;1.46;65.33;98856.72;212143;1329;140754;-59
2021/11/25 05:51:34;;;;;;;51.60;29.60;;;;;;;1.47;65.44;98845.69;213026;1329;139790;-65
2021/11/25 05:56:37;;;;;;;54.70;30.00;;;;;;;1.46;65.47;98834.52;212441;1330;139948;-61
2021/11/25 06:01:40;;;;;;;48.90;29.20;;;;;;;1.45;65.55;98832.44;212159;1329;139810;-61
2021/11/25 06:06:43;;;;;;;53.40;30.60;;;;;;;1.47;65.54;98827.16;212661;1328;140113;-60
2021/11/25 06:11:49;;;;;;;58.70;32.10;;;;;;;1.50;65.66;98825.67;212945;1324;140292;-63
2021/11/25 06:16:52;;;;;;;58.20;31.00;;;;;;;1.52;65.59;98823.52;212013;1328;140283;-61
2021/11/25 06:21:56;;;;;;;55.80;32.50;;;;;;;1.51;65.58;98816.56;212106;1324;140431;-58
2021/11/25 06:27:00;;;;;;;58.10;32.20;;;;;;;1.49;65.54;98811.17;212104;1332;138940;-58
2021/11/25 06:32:03;;;;;;;58.80;31.40;;;;;;;1.46;65.41;98809.18;212427;1324;140087;-62
2021/11/25 06:37:06;;;;;;;53.30;30.90;;;;;;;1.41;65.41;98811.23;212527;1326;140718;-59
2021/11/25 06:42:09;;;;;;;53.40;30.30;;;;;;;1.36;65.59;98812.41;213106;1323;139826;-57
2021/11/25 06:47:13;;;;;;;56.90;30.30;;;;;;;1.34;65.76;98807.59;212479;1326;139478;-58
2021/11/25 06:52:16;;;;;;;50.90;30.10;;;;;;;1.32;65.79;98808.52;212201;1324;139356;-60
2021/11/25 06:57:19;;;;;;;56.90;30.10;;;;;;;1.34;66.02;98808.11;212352;1325;138964;-56
2021/11/25 07:02:22;;;;;;;58.60;31.10;;;;;;;1.41;66.09;98798.46;212710;1327;139745;-61
2021/11/25 07:07:29;;;;;;;54.90;31.80;;;;;;;1.44;65.98;98798.39;211862;1331;139681;-57
2021/11/25 07:12:41;;;;;;;61.20;34.10;;;;;;;1.45;65.86;98799.58;211695;1331;139318;-59
2021/11/25 07:17:45;;;;;;;63.00;33.00;;;;;;;1.52;66.07;98793.95;211722;1327;139906;-64
2021/11/25 07:22:49;;;;;;;61.00;34.00;;;;;;;1.61;65.93;98792.63;212348;1325;139311;-64
2021/11/25 07:27:53;;;;;;;63.20;33.60;;;;;;;1.68;65.94;98784.57;212210;1325;138934;-63
2021/11/25 07:32:56;;;;;;;57.30;33.30;;;;;;;1.74;65.83;98785.78;211983;1323;139380;-62
2021/11/25 07:38:02;;;;;;;54.10;31.10;;;;;;;1.79;65.96;98787.89;212041;1331;139533;-59
2021/11/25 07:43:06;;;;;;;58.20;31.80;;;;;;;1.88;65.89;98780.98;212238;1329;139756;-58
2021/11/25 07:48:12;;;;;;;56.00;30.70;;;;;;;1.96;65.92;98775.14;211999;1324;139123;-58
2021/11/25 07:53:15;;;;;;;50.30;29.40;;;;;;;2.02;66.02;98766.52;211942;1331;139074;-60
2021/11/25 07:58:20;;;;;;;50.40;28.70;;;;;;;2.07;66.00;98764.96;212242;1327;139245;-59
2021/11/25 08:03:24;;;;;;;53.30;28.50;;;;;;;2.15;65.98;98757.21;212193;1324;139143;-60
2021/11/25 08:08:28;;;;;;;50.20;29.30;;;;;;;2.21;65.92;98755.09;211798;1334;139187;-65
2021/11/25 08:13:32;;;;;;;46.60;27.70;;;;;;;2.28;66.05;98749.60;211860;1331;140159;-61
2021/11/25 08:18:35;;;;;;;55.10;30.10;;;;;;;2.36;66.01;98740.93;212258;1324;141246;-58
2021/11/25 08:23:38;;;;;;;64.50;32.10;;;;;;;2.44;66.03;98739.80;212173;1328;141179;-62
2021/11/25 08:28:45;;;;;;;55.30;32.10;;;;;;;2.54;66.03;98738.20;212178;1328;139519;-54
2021/11/25 08:33:48;;;;;;;64.10;33.10;;;;;;;2.70;66.16;98734.69;212131;1329;140082;-59
2021/11/25 08:38:51;;;;;;;61.10;34.30;;;;;;;2.85;66.13;98736.07;212236;1325;140722;-59
2021/11/25 08:43:55;;;;;;;63.00;34.20;;;;;;;2.99;66.01;98732.59;212214;1328;138746;-60
2021/11/25 08:48:59;;;;;;;60.30;34.50;;;;;;;3.14;66.02;98725.90;211998;1327;140084;-58
2021/11/25 08:54:03;;;;;;;56.30;31.10;;;;;;;3.28;65.95;98715.55;212550;1326;138848;-60
2021/11/25 08:59:06;;;;;;;62.90;32.20;;;;;;;3.41;65.66;98711.58;211898;1328;139213;-59
2021/11/25 09:04:09;;;;;;;59.70;32.30;;;;;;;3.53;65.78;98711.80;212196;1322;139728;-58
2021/11/25 09:09:12;;;;;;;61.50;32.50;;;;;;;3.68;65.73;98707.01;212005;1322;140073;-58
2021/11/25 09:14:16;;;;;;;91.80;50.60;;;;;;;3.81;65.57;98702.47;212427;1329;139220;-58
2021/11/25 09:19:19;;;;;;;59.10;31.40;;;;;;;4.01;66.02;98695.50;212001;1326;141516;-58
2021/11/25 09:24:22;;;;;;;50.50;27.20;;;;;;;4.19;65.75;98694.40;211797;1328;139123;-58
2021/11/25 09:29:25;;;;;;;50.70;25.90;;;;;;;4.28;65.15;98685.26;212303;1329;139586;-58
2021/11/25 09:34:28;;;;;;;44.60;24.50;;;;;;;4.36;65.03;98676.50;211947;1329;139769;-60
2021/11/25 09:39:32;;;;;;;43.00;25.60;;;;;;;4.45;64.84;98666.96;212979;1322;139491;-58
2021/11/25 09:44:35;;;;;;;45.70;26.00;;;;;;;4.56;64.67;98664.58;212438;1323;139013;-58
2021/11/25 09:49:40;;;;;;;43.40;25.20;;;;;;;4.73;64.54;98648.52;212021;1325;139265;-59
2021/11/25 09:54:43;;;;;;;46.40;25.50;;;;;;;4.87;64.42;98645.07;212030;1321;138802;-58
2021/11/25 09:59:46;;;;;;;45.60;25.20;;;;;;;4.99;64.14;98630.98;211767;1321;139570;-59
2021/11/25 10:04:49;;;;;;;46.30;25.50;;;;;;;5.14;63.82;98631.55;211906;1329;141675;-58
2021/11/25 10:09:52;;;;;;;40.90;24.30;;;;;;;5.33;64.04;98623.98;211891;1329;139222;-58
2021/11/25 10:14:55;;;;;;;47.80;23.50;;;;;;;5.50;63.47;98621.75;212088;1328;139444;-59
2021/11/25 10:20:07;;;;;;;48.00;24.30;;;;;;;5.70;63.49;98612.86;212346;1325;140248;-59
2021/11/25 10:25:10;;;;;;;59.20;33.40;;;;;;;6.04;64.08;98597.48;212391;1322;139216;-58
2021/11/25 10:30:15;;;;;;;39.10;23.70;;;;;;;6.37;63.32;98582.73;211914;1325;139380;-56
2021/11/25 10:35:30;;;;;;;44.10;23.50;;;;;;;6.96;66.35;98569.78;211857;1328;139242;-55
2021/11/25 10:40:36;;;;;;;38.50;22.20;;;;;;;8.68;65.80;98550.09;211798;1325;140201;-61
2021/11/25 10:45:44;;;;;;;31.00;17.00;;;;;;;8.70;62.16;98537.45;211650;1325;141078;-60
2021/11/25 10:50:47;;;;;;;27.30;17.40;;;;;;;8.41;60.72;98525.28;211508;1331;139437;-57
2021/11/25 10:55:50;;;;;;;27.90;16.60;;;;;;;8.17;60.41;98508.50;212084;1325;139405;-58
2021/11/25 11:00:54;;;;;;;23.80;15.50;;;;;;;7.94;60.12;98505.80;211817;1325;142716;-57
2021/11/25 11:06:01;;;;;;;29.40;17.00;;;;;;;7.77;59.98;98491.27;212058;1325;139155;-57
2021/11/25 11:11:06;;;;;;;37.50;17.20;;;;;;;7.63;59.76;98479.23;212473;1324;139946;-58
2021/11/25 11:16:25;;;;;;;32.30;16.30;;;;;;;7.51;59.89;98473.92;211543;1327;224458;-59
2021/11/25 11:21:44;;;;;;;38.30;19.20;;;;;;;7.43;59.91;98470.34;211787;1324;139526;-57
2021/11/25 11:26:51;;;;;;;30.80;16.90;;;;;;;7.41;59.87;98463.63;211840;1330;139402;-59
2021/11/25 11:31:57;;;;;;;33.50;16.40;;;;;;;7.39;59.68;98449.23;211870;1327;139655;-60
2021/11/25 11:37:01;;;;;;;27.60;16.30;;;;;;;7.43;59.61;98432.07;212098;1322;139466;-59
2021/11/25 11:42:07;;;;;;;26.20;15.60;;;;;;;7.46;59.60;98420.95;212481;1322;140883;-57
2021/11/25 11:47:13;;;;;;;33.00;17.90;;;;;;;7.47;59.13;98405.88;212040;1321;139186;-58
2021/11/25 11:52:21;;;;;;;112.00;63.30;;;;;;;7.58;60.36;98393.91;211837;1328;139478;-58
2021/11/25 11:57:35;;;;;;;37.90;20.00;;;;;;;9.03;64.74;98387.20;212011;1325;139357;-59
2021/11/25 12:02:44;;;;;;;31.30;17.90;;;;;;;9.37;60.42;98376.69;212256;1325;139517;-58
2021/11/25 12:07:47;;;;;;;28.00;15.30;;;;;;;9.24;59.04;98372.05;211825;1328;139786;-56
2021/11/25 12:13:05;;;;;;;30.10;15.60;;;;;;;9.01;58.47;98361.04;212046;1328;139921;-59
2021/11/25 12:18:31;;;;;;;33.40;17.70;;;;;;;8.84;58.24;98353.48;211922;1325;139749;-58
2021/11/25 12:23:40;;;;;;;34.30;19.40;;;;;;;8.74;58.26;98339.48;211687;1325;140601;-59
2021/11/25 12:28:43;;;;;;;41.40;21.00;;;;;;;8.72;58.33;98325.77;211494;1334;140107;-58
2021/11/25 12:33:50;;;;;;;41.80;20.80;;;;;;;8.77;58.62;98321.79;212712;1322;138883;-58
2021/11/25 12:38:53;;;;;;;36.90;21.50;;;;;;;8.81;58.41;98306.45;211746;1329;139856;-59
2021/11/25 12:43:57;;;;;;;36.70;20.80;;;;;;;8.83;58.32;98300.17;212340;1325;139436;-57
2021/11/25 12:49:00;;;;;;;53.80;28.30;;;;;;;8.86;58.41;98289.16;211717;1334;140178;-57
2021/11/25 12:54:05;;;;;;;38.10;20.70;;;;;;;8.86;58.20;98277.84;212216;1328;140333;-57
2021/11/25 12:59:14;;;;;;;32.00;19.50;;;;;;;8.79;58.14;98272.27;212068;1330;140684;-57
2021/11/25 13:04:22;;;;;;;36.60;19.20;;;;;;;8.76;58.22;98271.25;212692;1324;139879;-57
2021/11/25 13:09:29;;;;;;;32.20;18.90;;;;;;;8.69;58.22;98266.89;212044;1327;139480;-58
2021/11/25 13:14:33;;;;;;;34.20;20.10;;;;;;;8.63;58.04;98261.83;211834;1329;139910;-59
2021/11/25 13:19:37;;;;;;;35.90;19.30;;;;;;;8.58;58.20;98252.80;211838;1329;140727;-57
2021/11/25 13:24:53;;;;;;;35.90;20.20;;;;;;;8.58;58.09;98238.83;212434;1326;139366;-58
2021/11/25 13:30:00;;;;;;;31.10;18.70;;;;;;;8.56;58.11;98242.69;211970;1328;139392;-57
2021/11/25 13:35:08;;;;;;;36.20;20.10;;;;;;;8.52;57.95;98236.80;212255;1325;139410;-61
2021/11/25 13:40:15;;;;;;;36.90;19.20;;;;;;;8.41;57.94;98231.69;212455;1325;140227;-57
2021/11/25 13:45:31;;;;;;;35.40;20.50;;;;;;;8.28;57.86;98227.02;212021;1325;139592;-57
2021/11/25 13:50:42;;;;;;;36.90;19.90;;;;;;;8.19;57.89;98232.94;212373;1325;139843;-58
2021/11/25 13:55:45;;;;;;;31.00;19.00;;;;;;;8.08;57.98;98222.47;211946;1324;139288;-58
2021/11/25 14:00:51;;;;;;;34.40;19.70;;;;;;;8.02;58.27;98224.32;212170;1324;141420;-57
2021/11/25 14:05:56;;;;;;;;;;;;;;;7.99;58.23;98217.61;212596;1328;139222;-57
2021/11/25 14:11:14;;;;;;;35.50;18.50;;;;;;;7.92;58.19;98207.30;211657;1331;125291;-58
2021/11/25 14:16:22;;;;;;;34.40;18.80;;;;;;;7.89;58.31;98204.16;212574;1322;139357;-56
2021/11/25 14:21:43;;;;;;;44.70;20.70;;;;;;;7.89;58.38;98206.42;211903;1328;139214;-58
2021/11/25 14:32:27;;;;;;;40.80;20.40;;;;;;;7.82;58.30;98203.14;212029;1324;139295;-60
2021/11/25 14:37:34;;;;;;;41.20;20.10;;;;;;;7.77;58.34;98199.23;211765;1331;140534;-59
2021/11/25 14:42:37;;;;;;;41.80;19.80;;;;;;;7.72;58.60;98196.08;212522;1328;139263;-58
2021/11/25 14:47:49;;;;;;;42.40;20.50;;;;;;;7.67;58.46;98181.88;212515;1329;139800;-60
2021/11/25 14:53:08;;;;;;;40.70;20.70;;;;;;;7.61;58.45;98181.55;212260;1330;138728;-60
2021/11/25 14:58:11;;;;;;;34.70;20.30;;;;;;;7.50;58.21;98185.77;212431;1324;139375;-57
2021/11/25 15:03:15;;;;;;;37.60;20.10;;;;;;;7.39;58.38;98181.17;212290;1324;139401;-60
2021/11/25 15:08:20;;;;;;;33.90;19.60;;;;;;;7.26;58.18;98168.95;211768;1328;139563;-59
2021/11/25 15:13:26;;;;;;;42.10;21.30;;;;;;;7.12;58.38;98169.12;212200;1325;139391;-58
2021/11/25 15:18:31;;;;;;;40.80;21.70;;;;;;;6.97;58.39;98172.52;212085;1324;140112;-59
2021/11/25 15:23:34;;;;;;;50.50;23.00;;;;;;;6.81;58.71;98174.70;211850;1328;139645;-59
2021/11/25 15:28:38;;;;;;;56.50;21.70;;;;;;;6.68;58.61;98164.25;211681;1328;139996;-57
2021/11/25 15:33:41;;;;;;;88.20;41.20;;;;;;;6.58;59.32;98156.91;212542;1324;141282;-57
2021/11/25 15:38:44;;;;;;;56.10;23.30;;;;;;;6.65;59.49;98152.77;211961;1325;140112;-63
2021/11/25 15:43:48;;;;;;;64.90;24.40;;;;;;;6.62;59.28;98141.86;213635;1324;140713;-60
2021/11/25 15:48:51;;;;;;;71.50;24.70;;;;;;;6.46;59.14;98149.13;213052;1322;139341;-62
2021/11/25 15:53:55;;;;;;;61.10;24.10;;;;;;;6.38;59.72;98147.32;212430;1325;139209;-60
2021/11/25 15:58:58;;;;;;;63.70;24.30;;;;;;;6.24;59.78;98145.71;211677;1332;139374;-61
2021/11/25 16:04:03;;;;;;;56.40;25.50;;;;;;;6.09;59.72;98145.33;212394;1322;139674;-58
2021/11/25 16:09:06;;;;;;;65.20;28.30;;;;;;;5.95;59.68;98152.14;212899;1325;139628;-60
2021/11/25 16:14:10;;;;;;;64.80;31.60;;;;;;;5.82;59.70;98151.80;211910;1326;139625;-62
2021/11/25 16:19:13;;;;;;;66.60;32.80;;;;;;;5.73;60.08;98162.54;211935;1331;139417;-57
2021/11/25 16:24:19;;;;;;;75.30;31.70;;;;;;;5.64;60.22;98159.00;212242;1325;140399;-58
2021/11/25 16:29:22;;;;;;;94.40;40.80;;;;;;;5.57;60.37;98165.89;212611;1324;139468;-58
2021/11/25 16:34:27;;;;;;;69.90;31.70;;;;;;;5.59;60.45;98162.45;212553;1322;140127;-59
2021/11/25 16:39:31;;;;;;;64.40;31.00;;;;;;;5.49;60.88;98160.15;212333;1329;139131;-59
2021/11/25 16:44:36;;;;;;;77.50;31.00;;;;;;;5.39;60.41;98167.00;211914;1325;139111;-59
2021/11/25 16:49:42;;;;;;;71.80;32.20;;;;;;;5.32;60.89;98163.38;212562;1329;140584;-58
2021/11/25 16:54:46;;;;;;;76.30;32.30;;;;;;;5.28;60.80;98159.94;211766;1332;140107;-59
2021/11/25 16:59:49;;;;;;;85.20;32.10;;;;;;;5.23;61.07;98163.73;212427;1328;139327;-59
2021/11/25 17:04:53;;;;;;;78.00;30.20;;;;;;;5.17;61.11;98174.54;212568;1324;140370;-58
2021/11/25 17:09:56;;;;;;;62.00;31.00;;;;;;;5.11;60.81;98173.52;211731;1327;139725;-57
2021/11/25 17:14:59;;;;;;;67.50;32.60;;;;;;;5.10;61.26;98170.41;212845;1322;139361;-59
2021/11/25 17:20:05;;;;;;;68.20;31.20;;;;;;;5.11;61.28;98173.65;211692;1328;139106;-58
2021/11/25 17:25:08;;;;;;;63.00;31.00;;;;;;;5.09;61.32;98166.74;212438;1325;139185;-58
2021/11/25 17:30:13;;;;;;;78.30;32.40;;;;;;;5.01;61.45;98165.27;212194;1331;140694;-61
2021/11/25 17:35:16;;;;;;;74.10;31.60;;;;;;;4.92;61.58;98154.81;211989;1324;139579;-58
2021/11/25 17:40:19;;;;;;;88.30;35.30;;;;;;;4.80;61.45;98156.70;212147;1328;139176;-58
2021/11/25 17:45:24;;;;;;;102.40;43.60;;;;;;;4.74;61.81;98156.99;212294;1325;139621;-56
2021/11/25 17:50:29;;;;;;;73.50;34.60;;;;;;;4.82;61.87;98156.60;211996;1327;139860;-56
2021/11/25 17:55:36;;;;;;;73.90;36.60;;;;;;;4.80;61.83;98155.45;211771;1325;140334;-58
2021/11/25 18:00:41;;;;;;;82.20;36.90;;;;;;;4.76;62.05;98155.86;212470;1324;139719;-58
2021/11/25 18:05:44;;;;;;;85.00;36.80;;;;;;;4.66;61.56;98164.64;212654;1325;139952;-59
2021/11/25 18:10:48;;;;;;;91.70;37.80;;;;;;;4.53;61.73;98165.16;212021;1326;140431;-58
2021/11/25 18:15:51;;;;;;;85.10;37.00;;;;;;;4.41;62.00;98163.10;211642;1327;139740;-57
2021/11/25 18:20:54;;;;;;;91.50;38.40;;;;;;;4.37;62.21;98153.69;212024;1325;139613;-57
2021/11/25 18:26:20;;;;;;;82.90;36.10;;;;;;;4.34;62.25;98155.59;212406;1326;139718;-58
2021/11/25 18:31:24;;;;;;;87.50;37.50;;;;;;;4.25;62.13;98159.18;211889;1331;139229;-58
2021/11/25 18:36:28;;;;;;;90.40;37.40;;;;;;;4.14;62.14;98160.62;212286;1329;140723;-60
2021/11/25 18:41:32;;;;;;;82.10;37.90;;;;;;;4.06;62.28;98163.31;212614;1325;140407;-58
2021/11/25 18:46:37;;;;;;;82.40;37.10;;;;;;;3.97;62.32;98167.80;212534;1326;139654;-58
2021/11/25 18:51:41;;;;;;;79.50;38.30;;;;;;;3.88;62.55;98162.10;211938;1327;139359;-60
2021/11/25 18:56:45;;;;;;;81.00;37.20;;;;;;;3.83;62.59;98164.59;211993;1331;139516;-59
2021/11/25 19:01:48;;;;;;;74.90;34.30;;;;;;;3.82;62.72;98162.23;211625;1328;139593;-58
2021/11/25 19:06:52;;;;;;;84.90;36.70;;;;;;;3.78;62.92;98161.70;211885;1322;139773;-56
2021/11/25 19:12:08;;;;;;;91.10;37.80;;;;;;;3.74;62.95;98163.31;212275;1324;256016;-59
2021/11/25 19:17:12;;;;;;;209.50;100.90;;;;;;;3.73;62.91;98163.54;211986;1325;139763;-58
2021/11/25 19:22:15;;;;;;;94.90;45.10;;;;;;;3.81;63.22;98164.39;212506;1325;139781;-58
2021/11/25 19:27:19;;;;;;;98.90;45.10;;;;;;;3.82;62.97;98157.81;212275;1325;139431;-57
2021/11/25 19:32:25;;;;;;;107.50;49.00;;;;;;;3.78;62.83;98158.91;212621;1322;138797;-61
2021/11/25 19:37:28;;;;;;;105.80;49.50;;;;;;;3.67;62.79;98159.98;212108;1323;140023;-61
2021/11/25 19:42:33;;;;;;;104.50;50.20;;;;;;;3.54;62.87;98163.55;211979;1322;140312;-59
2021/11/25 19:47:38;;;;;;;109.30;51.60;;;;;;;3.42;62.89;98168.66;212249;1325;139566;-59
2021/11/25 19:52:41;;;;;;;103.80;51.60;;;;;;;3.37;63.11;98175.78;211723;1327;140175;-60
2021/11/25 19:57:46;;;;;;;116.50;54.60;;;;;;;3.27;62.97;98186.73;211601;1331;139473;-59
2021/11/25 20:02:50;;;;;;;107.80;51.50;;;;;;;3.20;63.03;98188.29;212164;1326;140578;-57
2021/11/25 20:07:54;;;;;;;122.10;52.90;;;;;;;3.08;63.12;98181.46;211647;1327;139703;-58
2021/11/25 20:13:00;;;;;;;107.70;52.70;;;;;;;3.03;63.23;98183.98;212051;1324;139839;-60
2021/11/25 20:18:03;;;;;;;108.40;49.30;;;;;;;3.01;63.42;98193.89;212309;1329;139665;-59
2021/11/25 20:23:08;;;;;;;109.50;45.60;;;;;;;2.99;63.69;98195.56;212020;1327;140163;-60
2021/11/25 20:28:19;;;;;;;430.10;280.90;;;;;;;2.97;63.85;98190.37;211709;1331;139486;-56
2021/11/25 20:33:23;;;;;;;89.60;42.60;;;;;;;3.14;64.52;98191.73;212504;1327;139508;-58
2021/11/25 20:38:27;;;;;;;91.40;42.10;;;;;;;3.28;64.03;98185.46;211812;1325;140044;-57
2021/11/25 20:43:32;;;;;;;84.10;40.60;;;;;;;3.27;63.80;98179.20;211767;1331;139896;-57
2021/11/25 20:48:49;;;;;;;96.20;44.40;;;;;;;3.23;63.67;98170.80;211525;1325;139361;-57
2021/11/25 20:53:56;;;;;;;83.40;40.50;;;;;;;3.21;63.88;98169.33;211549;1325;139271;-58
2021/11/25 20:59:00;;;;;;;75.70;38.90;;;;;;;3.19;63.90;98163.10;212082;1325;139481;-59
2021/11/25 21:04:05;;;;;;;74.70;39.00;;;;;;;3.20;64.02;98167.45;212443;1329;138919;-59
2021/11/25 21:09:12;;;;;;;88.70;40.40;;;;;;;3.15;63.82;98177.64;212509;1325;139283;-58
2021/11/25 21:14:20;;;;;;;283.80;179.50;;;;;;;3.11;64.06;98177.33;212259;1328;139390;-57
2021/11/25 21:19:26;;;;;;;78.00;39.40;;;;;;;3.24;64.66;98174.79;211729;1328;139819;-58
2021/11/25 21:24:40;;;;;;;73.20;36.40;;;;;;;3.26;64.25;98170.48;211967;1328;139439;-57
2021/11/25 21:29:47;;;;;;;70.60;35.20;;;;;;;3.19;64.05;98165.20;211956;1327;139724;-60
2021/11/25 21:34:54;;;;;;;81.80;40.00;;;;;;;3.13;64.19;98160.39;211937;1329;139239;-60
2021/11/25 21:40:04;;;;;;;70.10;35.10;;;;;;;3.15;64.51;98159.11;212989;1310;139741;31
2021/11/25 21:45:11;;;;;;;73.70;36.40;;;;;;;3.11;64.33;98169.27;211896;1329;139895;-56
2021/11/25 21:50:19;;;;;;;71.50;35.30;;;;;;;3.01;64.21;98167.23;211897;1330;139638;-60
2021/11/25 21:55:26;;;;;;;74.80;37.60;;;;;;;2.97;64.28;98166.56;211965;1326;140647;-57
2021/11/25 22:00:33;;;;;;;79.70;39.20;;;;;;;2.99;64.45;98163.33;212994;1327;139370;-58
2021/11/25 22:05:41;;;;;;;69.10;36.70;;;;;;;3.04;64.44;98160.28;211913;1329;138576;-63
2021/11/25 22:11:21;;;;;;;96.60;46.20;;;;;;;3.04;64.24;98156.41;213082;1325;139195;-64
2021/11/25 22:16:26;;;;;;;122.60;58.20;;;;;;;2.96;64.14;98147.55;213083;1322;139019;-64
2021/11/25 22:21:45;;;;;;;137.40;64.10;;;;;;;2.85;64.08;98144.53;212105;1328;139052;-62
2021/11/25 22:26:55;;;;;;;132.30;66.90;;;;;;;2.74;64.00;98142.55;212053;1329;138732;-63
2021/11/25 22:32:06;;;;;;;136.00;68.60;;;;;;;2.62;64.13;98140.80;212210;1326;139481;-63
2021/11/25 22:37:11;;;;;;;146.60;72.00;;;;;;;2.55;64.18;98139.56;211963;1333;139410;-65
2021/11/25 22:42:19;;;;;;;148.90;72.90;;;;;;;2.52;64.31;98135.64;212668;1323;141118;-66
2021/11/25 22:47:30;;;;;;;149.30;71.40;;;;;;;2.47;64.36;98137.26;212146;1328;138841;-61
2021/11/25 22:52:44;;;;;;;132.80;64.30;;;;;;;2.43;64.60;98133.60;212283;1328;139801;-58
2021/11/25 22:57:58;;;;;;;144.60;66.10;;;;;;;2.44;64.65;98134.95;212177;1323;139730;-59
2021/11/25 23:03:11;;;;;;;128.00;63.90;;;;;;;2.41;64.76;98137.87;212788;1325;141085;-60
2021/11/25 23:08:16;;;;;;;131.90;60.90;;;;;;;2.49;64.98;98133.84;212187;1329;139962;-58
2021/11/25 23:13:21;;;;;;;131.80;64.90;;;;;;;2.61;65.07;98130.70;212471;1328;139490;-57